TimePST,TemperatureF,Dew PointF,Humidity,Sea Level PressureIn,VisibilityMPH,Wind Direction,Wind SpeedMPH,Gust SpeedMPH,PrecipitationIn,Events,Conditions,WindDirDegrees,DateUTC
12:24 AM,42.8,39.2,87,30.05,10.0,NW,3.5,-,N/A,,Partly Cloudy,310,2013-02-18 08:24:00
12:38 AM,42.8,39.2,87,30.04,10.0,NW,4.6,-,N/A,,Mostly Cloudy,320,2013-02-18 08:38:00
12:53 AM,42.1,39.9,92,30.05,10.0,NW,3.5,-,N/A,,Overcast,310,2013-02-18 08:53:00
1:53 AM,42.1,39.9,92,30.05,10.0,Calm,Calm,-,N/A,,Overcast,0,2013-02-18 09:53:00
2:53 AM,43.0,41.0,93,30.04,1.8,Calm,Calm,-,N/A,,Overcast,0,2013-02-18 10:53:00
3:04 AM,42.8,42.8,100,30.03,1.0,NNW,3.5,-,N/A,,Mist,330,2013-02-18 11:04:00
3:15 AM,42.8,42.8,100,30.03,0.8,NNW,3.5,-,N/A,,Mist,340,2013-02-18 11:15:00
3:30 AM,42.8,42.8,100,30.03,1.0,North,3.5,-,N/A,,Mist,360,2013-02-18 11:30:00
3:53 AM,44.1,43.0,96,30.02,1.8,North,3.5,-,N/A,,Overcast,10,2013-02-18 11:53:00
4:29 AM,44.6,44.6,100,30.02,2.0,Calm,Calm,-,N/A,,Overcast,0,2013-02-18 12:29:00
4:53 AM,45.0,44.1,97,30.02,3.0,Variable,3.5,-,N/A,,Overcast,0,2013-02-18 12:53:00
5:31 AM,44.6,44.6,100,30.03,4.0,WNW,3.5,-,N/A,,Overcast,300,2013-02-18 13:31:00
5:43 AM,44.6,44.6,100,30.03,5.0,NNW,3.5,-,N/A,,Overcast,330,2013-02-18 13:43:00
6:53 AM,46.0,44.1,93,30.04,9.0,Calm,Calm,-,N/A,,Overcast,0,2013-02-18 14:53:00
7:53 AM,45.0,44.1,97,30.06,4.0,Calm,Calm,-,N/A,,Overcast,0,2013-02-18 15:53:00
8:53 AM,46.0,44.1,93,30.06,4.0,Calm,Calm,-,0.01,,Overcast,0,2013-02-18 16:53:00
9:09 AM,46.4,44.6,93,30.06,4.0,Calm,Calm,-,N/A,,Overcast,0,2013-02-18 17:09:00
9:46 AM,46.4,44.6,93,30.07,2.5,Calm,Calm,-,0.00,Rain,Light Rain,0,2013-02-18 17:46:00
9:51 AM,46.4,44.6,93,30.07,4.0,Calm,Calm,-,0.00,Rain,Light Rain,0,2013-02-18 17:51:00
9:53 AM,46.9,45.0,93,30.07,6.0,Calm,Calm,-,0.00,,Overcast,0,2013-02-18 17:53:00
10:43 AM,48.2,44.6,87,30.08,10.0,SSW,5.8,-,N/A,,Overcast,210,2013-02-18 18:43:00
10:53 AM,48.0,45.0,89,30.08,10.0,WSW,4.6,-,N/A,,Overcast,250,2013-02-18 18:53:00
11:15 AM,48.2,44.6,87,30.08,9.0,SW,6.9,-,N/A,,Overcast,220,2013-02-18 19:15:00
11:53 AM,51.1,43.0,74,30.07,10.0,SSW,9.2,-,N/A,,Overcast,210,2013-02-18 19:53:00
12:53 PM,51.1,41.0,68,30.05,10.0,SSW,10.4,-,N/A,,Mostly Cloudy,210,2013-02-18 20:53:00
1:53 PM,51.1,39.0,63,30.04,10.0,SSW,11.5,-,N/A,,Overcast,210,2013-02-18 21:53:00
2:53 PM,50.0,41.0,71,30.02,10.0,SW,11.5,17.3,N/A,,Overcast,220,2013-02-18 22:53:00
3:53 PM,50.0,39.9,68,30.01,10.0,SSW,11.5,-,N/A,,Overcast,210,2013-02-18 23:53:00
4:53 PM,48.9,37.9,66,30.01,10.0,SW,8.1,-,N/A,,Overcast,230,2013-02-19 00:53:00
5:53 PM,48.9,36.0,61,30.02,10.0,WSW,5.8,-,N/A,,Overcast,240,2013-02-19 01:53:00
6:53 PM,48.0,39.0,71,30.03,10.0,WSW,8.1,-,N/A,,Overcast,250,2013-02-19 02:53:00
7:53 PM,46.0,39.0,76,30.02,10.0,Calm,Calm,-,N/A,,Overcast,0,2013-02-19 03:53:00
8:53 PM,46.9,39.0,74,30.02,10.0,Calm,Calm,-,N/A,,Overcast,0,2013-02-19 04:53:00
9:53 PM,46.9,37.9,71,30.03,10.0,Calm,Calm,-,N/A,,Mostly Cloudy,0,2013-02-19 05:53:00
10:53 PM,46.0,39.0,76,30.02,10.0,Calm,Calm,-,N/A,,Mostly Cloudy,0,2013-02-19 06:53:00
11:53 PM,46.0,39.0,76,30.00,10.0,West,4.6,-,N/A,,Overcast,270,2013-02-19 07:53:00